Rucker, Arizona
Current Conditions -  °F | °C
As of 1:51 AM on Thursday 27 Nov 2014 (Local Time) from KSAD Reporting Station
Clear Clear  
Wind Chill: 35°   Ceiling: Unl
Heat Index: 40°   Visibility: 10mi
Dew Point: 13°   Wind: 7mph
Humidity: 33%   Direction: 120°ESE
Pressure: 30.31"   Gusts: NA
Location:  32.5598°N, 110.08°W
Report Text: KSAD 270851Z AUTO 12006KT 10SM CLR 04/M11 A3031 RMK AO2 SLP245 T00441106 51005
Loading
Personal Weather Stations






























Interactive Weather Map New forecast layout! Learn more

10-Day Weather Forecast

Advertisements
Track Severe Weather on mobile